Terminal Aerodrome Forecast
Issued by NWS Pittsburgh, PA

Current Version | Previous Version | Graphics & Text | Print | Product List | Glossary On
Versions: 1 2 3 4 5 6 7 8 9 10 11 12 13 14 15 16 17 18 19 20 21 22 23 24 25 26 27 28 29 30 31 32 33 34
394
FTUS41 KPBZ 291737
TAFPIT
TAF
KPIT 291737Z 2918/3024 24002KT P6SM BKN035
     FM292200 00000KT P6SM BKN050
     FM300400 00000KT 6SM BR BKN250
     FM301100 10002KT 2SM BR OVC003
     FM301300 VRB03KT 4SM HZ BR OVC015
     FM301600 21004KT P6SM BKN050
     FM301900 21007KT P6SM VCTS BKN050CB=

USA.gov is the U.S. government's official web portal to all federal, state and local government web resources and services.